Terminal Aerodrome Forecast
Issued by NWS Denver/Boulder, CO

Home | Current Version | Previous Version | Text Only | Print | Product List | Glossary On
Versions: 1 2 3 4 5 6 7 8 9 10 11 12 13 14 15 16 17 18 19 20 21 22 23 24 25 26 27 28 29 30 31 32 33 34 35 36 37 38 39 40 41 42
000
FTUS45 KBOU 300143 AAB
TAFDEN
TAF AMD
KDEN 300143Z 3002/3106 05007KT P6SM FEW140 SCT220
     FM300400 35007KT P6SM FEW220
     FM301000 23007KT P6SM SKC
     FM301400 34007KT P6SM FEW060 SCT100
     FM301700 06008KT P6SM FEW080 SCT140
     FM302100 09010KT P6SM FEW120 SCT200
     FM310200 17008KT P6SM FEW150=

USA.gov is the U.S. government's official web portal to all federal, state and local government web resources and services.